sensor_id;sensor_type;location;lat;lon;timestamp;temperature;humidity
39899;DHT22;25571;47.876;10.642;2023-06-19T00:00:39;18.20;93.00
39899;DHT22;25571;47.876;10.642;2023-06-19T00:03:05;18.10;93.30
39899;DHT22;25571;47.876;10.642;2023-06-19T00:05:30;18.00;93.50
39899;DHT22;25571;47.876;10.642;2023-06-19T00:07:56;18.00;93.60
39899;DHT22;25571;47.876;10.642;2023-06-19T00:10:21;18.60;93.90
39899;DHT22;25571;47.876;10.642;2023-06-19T00:12:47;17.80;93.50
39899;DHT22;25571;47.876;10.642;2023-06-19T00:15:12;17.90;93.70
39899;DHT22;25571;47.876;10.642;2023-06-19T00:17:38;17.90;93.60
39899;DHT22;25571;47.876;10.642;2023-06-19T00:20:04;17.80;93.30
39899;DHT22;25571;47.876;10.642;2023-06-19T00:22:31;17.80;93.20
39899;DHT22;25571;47.876;10.642;2023-06-19T00:24:56;17.80;93.40
39899;DHT22;25571;47.876;10.642;2023-06-19T00:27:22;17.80;93.40
39899;DHT22;25571;47.876;10.642;2023-06-19T00:29:47;18.10;93.10
39899;DHT22;25571;47.876;10.642;2023-06-19T00:32:13;18.40;93.10
39899;DHT22;25571;47.876;10.642;2023-06-19T00:34:38;17.90;93.40
39899;DHT22;25571;47.876;10.642;2023-06-19T00:37:04;18.10;94.30
39899;DHT22;25571;47.876;10.642;2023-06-19T00:39:29;18.10;94.40
39899;DHT22;25571;47.876;10.642;2023-06-19T00:41:55;18.20;94.20
39899;DHT22;25571;47.876;10.642;2023-06-19T00:44:21;18.30;94.50
39899;DHT22;25571;47.876;10.642;2023-06-19T00:46:47;18.30;94.70
39899;DHT22;25571;47.876;10.642;2023-06-19T00:49:16;18.30;94.40
39899;DHT22;25571;47.876;10.642;2023-06-19T00:51:41;18.40;94.30
39899;DHT22;25571;47.876;10.642;2023-06-19T00:54:07;18.40;94.60
39899;DHT22;25571;47.876;10.642;2023-06-19T00:56:32;19.00;95.30
39899;DHT22;25571;47.876;10.642;2023-06-19T00:58:59;18.30;95.40
39899;DHT22;25571;47.876;10.642;2023-06-19T01:01:26;18.40;94.90
39899;DHT22;25571;47.876;10.642;2023-06-19T01:03:52;18.40;95.30
39899;DHT22;25571;47.876;10.642;2023-06-19T01:06:22;18.40;96.00
39899;DHT22;25571;47.876;10.642;2023-06-19T01:08:50;18.40;96.00
39899;DHT22;25571;47.876;10.642;2023-06-19T01:11:20;18.40;95.90
39899;DHT22;25571;47.876;10.642;2023-06-19T01:13:59;18.40;96.10
39899;DHT22;25571;47.876;10.642;2023-06-19T01:16:26;18.40;95.40
39899;DHT22;25571;47.876;10.642;2023-06-19T01:18:53;18.50;95.10
39899;DHT22;25571;47.876;10.642;2023-06-19T01:21:18;18.50;94.60
39899;DHT22;25571;47.876;10.642;2023-06-19T01:23:44;18.50;95.00
39899;DHT22;25571;47.876;10.642;2023-06-19T01:26:10;19.10;95.20
39899;DHT22;25571;47.876;10.642;2023-06-19T01:28:36;18.60;94.90
39899;DHT22;25571;47.876;10.642;2023-06-19T01:31:15;18.70;94.90
39899;DHT22;25571;47.876;10.642;2023-06-19T01:33:42;18.60;95.20
39899;DHT22;25571;47.876;10.642;2023-06-19T01:36:10;18.70;95.30
39899;DHT22;25571;47.876;10.642;2023-06-19T01:38:35;18.70;95.40
39899;DHT22;25571;47.876;10.642;2023-06-19T01:41:01;18.60;95.20
39899;DHT22;25571;47.876;10.642;2023-06-19T01:43:28;18.60;95.40
39899;DHT22;25571;47.876;10.642;2023-06-19T01:45:55;18.60;95.20
39899;DHT22;25571;47.876;10.642;2023-06-19T01:48:21;18.60;95.70
39899;DHT22;25571;47.876;10.642;2023-06-19T01:50:47;18.60;95.20
39899;DHT22;25571;47.876;10.642;2023-06-19T01:53:13;18.70;95.80
39899;DHT22;25571;47.876;10.642;2023-06-19T01:55:38;18.70;95.80
39899;DHT22;25571;47.876;10.642;2023-06-19T01:58:04;18.70;96.00
39899;DHT22;25571;47.876;10.642;2023-06-19T02:00:29;18.70;96.00
39899;DHT22;25571;47.876;10.642;2023-06-19T02:02:57;18.70;96.30
39899;DHT22;25571;47.876;10.642;2023-06-19T02:05:23;18.80;96.30
39899;DHT22;25571;47.876;10.642;2023-06-19T02:07:48;18.60;96.50
39899;DHT22;25571;47.876;10.642;2023-06-19T02:10:13;18.50;96.60
39899;DHT22;25571;47.876;10.642;2023-06-19T02:12:39;18.50;96.40
39899;DHT22;25571;47.876;10.642;2023-06-19T02:15:04;18.50;96.90
39899;DHT22;25571;47.876;10.642;2023-06-19T02:17:30;18.50;96.70
39899;DHT22;25571;47.876;10.642;2023-06-19T02:19:56;18.50;96.30
39899;DHT22;25571;47.876;10.642;2023-06-19T02:22:21;18.40;95.90
39899;DHT22;25571;47.876;10.642;2023-06-19T02:24:47;18.40;96.30
39899;DHT22;25571;47.876;10.642;2023-06-19T02:27:12;18.40;96.30
39899;DHT22;25571;47.876;10.642;2023-06-19T02:29:38;18.40;96.50
39899;DHT22;25571;47.876;10.642;2023-06-19T02:32:03;18.40;96.50
39899;DHT22;25571;47.876;10.642;2023-06-19T02:34:29;18.50;96.50
39899;DHT22;25571;47.876;10.642;2023-06-19T02:36:54;19.10;96.30
39899;DHT22;25571;47.876;10.642;2023-06-19T02:39:20;18.50;95.60
39899;DHT22;25571;47.876;10.642;2023-06-19T02:41:45;18.60;95.20
39899;DHT22;25571;47.876;10.642;2023-06-19T02:44:12;18.60;95.40
39899;DHT22;25571;47.876;10.642;2023-06-19T02:46:37;20.10;95.90
39899;DHT22;25571;47.876;10.642;2023-06-19T02:49:03;19.00;95.20
39899;DHT22;25571;47.876;10.642;2023-06-19T02:51:28;18.70;95.50
39899;DHT22;25571;47.876;10.642;2023-06-19T02:53:54;18.80;95.60
39899;DHT22;25571;47.876;10.642;2023-06-19T02:56:19;18.80;95.50
39899;DHT22;25571;47.876;10.642;2023-06-19T02:58:45;19.30;95.80
39899;DHT22;25571;47.876;10.642;2023-06-19T03:01:10;19.10;95.60
39899;DHT22;25571;47.876;10.642;2023-06-19T03:03:36;18.90;95.50
39899;DHT22;25571;47.876;10.642;2023-06-19T03:06:05;19.30;95.70
39899;DHT22;25571;47.876;10.642;2023-06-19T03:08:33;18.90;95.30
39899;DHT22;25571;47.876;10.642;2023-06-19T03:10:58;19.00;94.70
39899;DHT22;25571;47.876;10.642;2023-06-19T03:13:24;19.00;95.00
39899;DHT22;25571;47.876;10.642;2023-06-19T03:15:50;19.00;95.00
39899;DHT22;25571;47.876;10.642;2023-06-19T03:18:15;19.20;95.60
39899;DHT22;25571;47.876;10.642;2023-06-19T03:20:41;19.00;95.40
39899;DHT22;25571;47.876;10.642;2023-06-19T03:23:06;18.90;95.70
39899;DHT22;25571;47.876;10.642;2023-06-19T03:25:32;19.00;95.50
39899;DHT22;25571;47.876;10.642;2023-06-19T03:28:03;18.90;95.60
39899;DHT22;25571;47.876;10.642;2023-06-19T03:30:29;18.80;95.20
39899;DHT22;25571;47.876;10.642;2023-06-19T03:32:55;18.80;95.50
39899;DHT22;25571;47.876;10.642;2023-06-19T03:35:20;18.90;95.40
39899;DHT22;25571;47.876;10.642;2023-06-19T03:37:46;18.90;95.60
39899;DHT22;25571;47.876;10.642;2023-06-19T03:40:11;18.70;95.70
39899;DHT22;25571;47.876;10.642;2023-06-19T03:42:39;18.90;95.40
39899;DHT22;25571;47.876;10.642;2023-06-19T03:45:05;18.90;95.80
39899;DHT22;25571;47.876;10.642;2023-06-19T03:47:30;18.90;95.90
39899;DHT22;25571;47.876;10.642;2023-06-19T03:49:56;19.20;96.30
39899;DHT22;25571;47.876;10.642;2023-06-19T03:52:21;18.90;95.80
39899;DHT22;25571;47.876;10.642;2023-06-19T03:54:47;19.00;96.20
39899;DHT22;25571;47.876;10.642;2023-06-19T03:57:12;19.00;96.20
39899;DHT22;25571;47.876;10.642;2023-06-19T03:59:38;19.80;96.40
39899;DHT22;25571;47.876;10.642;2023-06-19T04:02:03;19.00;96.10
39899;DHT22;25571;47.876;10.642;2023-06-19T04:04:29;19.00;96.50
39899;DHT22;25571;47.876;10.642;2023-06-19T04:06:54;18.90;96.50
39899;DHT22;25571;47.876;10.642;2023-06-19T04:09:20;20.40;97.10
39899;DHT22;25571;47.876;10.642;2023-06-19T04:11:45;18.90;96.50
39899;DHT22;25571;47.876;10.642;2023-06-19T04:14:11;19.90;96.90
39899;DHT22;25571;47.876;10.642;2023-06-19T04:16:37;20.00;97.10
39899;DHT22;25571;47.876;10.642;2023-06-19T04:19:02;20.30;97.10
39899;DHT22;25571;47.876;10.642;2023-06-19T04:21:28;19.10;96.70
39899;DHT22;25571;47.876;10.642;2023-06-19T04:23:53;19.90;96.90
39899;DHT22;25571;47.876;10.642;2023-06-19T04:26:19;20.40;96.70
39899;DHT22;25571;47.876;10.642;2023-06-19T04:28:46;19.80;96.40
39899;DHT22;25571;47.876;10.642;2023-06-19T04:31:12;19.50;94.80
39899;DHT22;25571;47.876;10.642;2023-06-19T04:33:37;19.60;94.80
39899;DHT22;25571;47.876;10.642;2023-06-19T04:36:03;19.80;94.40
39899;DHT22;25571;47.876;10.642;2023-06-19T04:38:28;19.90;94.10
39899;DHT22;25571;47.876;10.642;2023-06-19T04:40:54;20.20;93.70
39899;DHT22;25571;47.876;10.642;2023-06-19T04:43:19;20.20;94.00
39899;DHT22;25571;47.876;10.642;2023-06-19T04:45:45;20.40;93.80
39899;DHT22;25571;47.876;10.642;2023-06-19T04:48:10;20.40;93.60
39899;DHT22;25571;47.876;10.642;2023-06-19T04:50:36;20.60;93.00
39899;DHT22;25571;47.876;10.642;2023-06-19T04:53:02;20.50;93.30
39899;DHT22;25571;47.876;10.642;2023-06-19T04:55:27;20.60;93.40
39899;DHT22;25571;47.876;10.642;2023-06-19T04:57:53;21.30;93.30
39899;DHT22;25571;47.876;10.642;2023-06-19T05:00:18;21.10;93.20
39899;DHT22;25571;47.876;10.642;2023-06-19T05:02:44;21.20;92.50
39899;DHT22;25571;47.876;10.642;2023-06-19T05:05:12;21.20;92.60
39899;DHT22;25571;47.876;10.642;2023-06-19T05:07:38;21.40;92.90
39899;DHT22;25571;47.876;10.642;2023-06-19T05:10:04;21.40;92.80
39899;DHT22;25571;47.876;10.642;2023-06-19T05:12:29;21.50;92.60
39899;DHT22;25571;47.876;10.642;2023-06-19T05:14:55;21.60;92.70
39899;DHT22;25571;47.876;10.642;2023-06-19T05:17:20;21.50;92.60
39899;DHT22;25571;47.876;10.642;2023-06-19T05:19:46;21.60;92.70
39899;DHT22;25571;47.876;10.642;2023-06-19T05:22:11;21.40;92.50
39899;DHT22;25571;47.876;10.642;2023-06-19T05:24:37;21.60;92.90
39899;DHT22;25571;47.876;10.642;2023-06-19T05:27:02;21.50;92.90
39899;DHT22;25571;47.876;10.642;2023-06-19T05:29:28;21.80;92.90
39899;DHT22;25571;47.876;10.642;2023-06-19T05:31:54;21.70;92.40
39899;DHT22;25571;47.876;10.642;2023-06-19T05:34:20;22.00;92.40
39899;DHT22;25571;47.876;10.642;2023-06-19T05:36:45;22.00;92.30
39899;DHT22;25571;47.876;10.642;2023-06-19T05:39:12;22.00;92.40
39899;DHT22;25571;47.876;10.642;2023-06-19T05:41:38;22.30;92.20
39899;DHT22;25571;47.876;10.642;2023-06-19T05:44:03;22.20;92.20
39899;DHT22;25571;47.876;10.642;2023-06-19T05:46:29;22.30;92.60
39899;DHT22;25571;47.876;10.642;2023-06-19T05:48:54;22.40;92.10
39899;DHT22;25571;47.876;10.642;2023-06-19T05:51:20;22.10;92.60
39899;DHT22;25571;47.876;10.642;2023-06-19T05:53:45;22.50;92.20
39899;DHT22;25571;47.876;10.642;2023-06-19T05:56:12;23.20;91.60
39899;DHT22;25571;47.876;10.642;2023-06-19T05:58:37;22.90;91.50
39899;DHT22;25571;47.876;10.642;2023-06-19T06:01:03;22.80;91.20
39899;DHT22;25571;47.876;10.642;2023-06-19T06:03:28;22.50;91.20
39899;DHT22;25571;47.876;10.642;2023-06-19T06:05:55;22.70;91.30
39899;DHT22;25571;47.876;10.642;2023-06-19T06:08:28;22.60;91.50
39899;DHT22;25571;47.876;10.642;2023-06-19T06:10:53;22.80;91.90
39899;DHT22;25571;47.876;10.642;2023-06-19T06:13:19;22.90;91.70
39899;DHT22;25571;47.876;10.642;2023-06-19T06:15:44;23.00;91.80
39899;DHT22;25571;47.876;10.642;2023-06-19T06:18:10;23.10;91.80
39899;DHT22;25571;47.876;10.642;2023-06-19T06:20:35;23.10;91.40
39899;DHT22;25571;47.876;10.642;2023-06-19T06:23:01;23.00;91.50
39899;DHT22;25571;47.876;10.642;2023-06-19T06:25:26;23.10;91.80
39899;DHT22;25571;47.876;10.642;2023-06-19T06:27:52;23.10;91.50
39899;DHT22;25571;47.876;10.642;2023-06-19T06:30:17;23.20;91.40
39899;DHT22;25571;47.876;10.642;2023-06-19T06:32:43;23.40;91.50
39899;DHT22;25571;47.876;10.642;2023-06-19T06:35:08;23.70;90.40
39899;DHT22;25571;47.876;10.642;2023-06-19T06:37:34;23.90;90.20
39899;DHT22;25571;47.876;10.642;2023-06-19T06:40:00;23.90;88.60
39899;DHT22;25571;47.876;10.642;2023-06-19T06:42:25;23.90;87.60
39899;DHT22;25571;47.876;10.642;2023-06-19T06:44:51;24.00;88.60
39899;DHT22;25571;47.876;10.642;2023-06-19T06:47:16;24.00;88.70
39899;DHT22;25571;47.876;10.642;2023-06-19T06:49:42;24.30;88.50
39899;DHT22;25571;47.876;10.642;2023-06-19T06:52:07;24.30;87.70
39899;DHT22;25571;47.876;10.642;2023-06-19T06:54:33;24.40;87.60
39899;DHT22;25571;47.876;10.642;2023-06-19T06:56:59;24.50;87.20
39899;DHT22;25571;47.876;10.642;2023-06-19T06:59:25;24.60;86.90
39899;DHT22;25571;47.876;10.642;2023-06-19T07:01:52;24.90;87.30
39899;DHT22;25571;47.876;10.642;2023-06-19T07:04:18;25.10;85.80
39899;DHT22;25571;47.876;10.642;2023-06-19T07:06:43;25.30;85.10
39899;DHT22;25571;47.876;10.642;2023-06-19T07:09:09;25.50;84.80
39899;DHT22;25571;47.876;10.642;2023-06-19T07:11:35;25.50;84.60
39899;DHT22;25571;47.876;10.642;2023-06-19T07:14:01;25.60;84.90
39899;DHT22;25571;47.876;10.642;2023-06-19T07:16:26;25.60;84.80
39899;DHT22;25571;47.876;10.642;2023-06-19T07:18:52;25.50;84.90
39899;DHT22;25571;47.876;10.642;2023-06-19T07:21:17;25.70;84.90
39899;DHT22;25571;47.876;10.642;2023-06-19T07:23:43;26.10;83.70
39899;DHT22;25571;47.876;10.642;2023-06-19T07:26:10;26.40;82.70
39899;DHT22;25571;47.876;10.642;2023-06-19T07:28:36;26.80;79.80
39899;DHT22;25571;47.876;10.642;2023-06-19T07:31:02;27.00;81.40
39899;DHT22;25571;47.876;10.642;2023-06-19T07:33:28;27.20;80.00
39899;DHT22;25571;47.876;10.642;2023-06-19T07:35:54;27.20;80.00
39899;DHT22;25571;47.876;10.642;2023-06-19T07:38:20;26.90;79.30
39899;DHT22;25571;47.876;10.642;2023-06-19T07:40:45;26.90;78.90
39899;DHT22;25571;47.876;10.642;2023-06-19T07:43:10;27.10;79.50
39899;DHT22;25571;47.876;10.642;2023-06-19T07:45:36;27.30;78.80
39899;DHT22;25571;47.876;10.642;2023-06-19T07:48:02;27.10;79.20
39899;DHT22;25571;47.876;10.642;2023-06-19T07:50:27;27.10;78.70
39899;DHT22;25571;47.876;10.642;2023-06-19T07:52:53;27.20;78.10
39899;DHT22;25571;47.876;10.642;2023-06-19T07:55:18;27.30;79.10
39899;DHT22;25571;47.876;10.642;2023-06-19T07:57:44;27.60;78.00
39899;DHT22;25571;47.876;10.642;2023-06-19T08:00:09;27.80;76.40
39899;DHT22;25571;47.876;10.642;2023-06-19T08:02:38;28.00;76.50
39899;DHT22;25571;47.876;10.642;2023-06-19T08:05:04;28.20;75.70
39899;DHT22;25571;47.876;10.642;2023-06-19T08:07:29;28.50;74.60
39899;DHT22;25571;47.876;10.642;2023-06-19T08:09:55;28.60;73.60
39899;DHT22;25571;47.876;10.642;2023-06-19T08:12:20;28.80;71.60
39899;DHT22;25571;47.876;10.642;2023-06-19T08:14:46;29.10;72.50
39899;DHT22;25571;47.876;10.642;2023-06-19T08:17:11;30.70;69.30
39899;DHT22;25571;47.876;10.642;2023-06-19T08:19:37;31.50;65.30
39899;DHT22;25571;47.876;10.642;2023-06-19T08:22:05;31.00;63.80
39899;DHT22;25571;47.876;10.642;2023-06-19T08:24:30;31.00;65.80
39899;DHT22;25571;47.876;10.642;2023-06-19T08:26:55;31.10;66.80
39899;DHT22;25571;47.876;10.642;2023-06-19T08:29:21;31.50;65.00
39899;DHT22;25571;47.876;10.642;2023-06-19T08:31:47;31.00;65.00
39899;DHT22;25571;47.876;10.642;2023-06-19T08:34:13;31.80;65.60
39899;DHT22;25571;47.876;10.642;2023-06-19T08:36:38;31.20;62.60
39899;DHT22;25571;47.876;10.642;2023-06-19T08:39:04;31.40;64.30
39899;DHT22;25571;47.876;10.642;2023-06-19T08:41:30;32.70;62.00
39899;DHT22;25571;47.876;10.642;2023-06-19T08:43:55;32.90;60.60
39899;DHT22;25571;47.876;10.642;2023-06-19T08:46:21;33.20;57.60
39899;DHT22;25571;47.876;10.642;2023-06-19T08:48:46;34.00;57.50
39899;DHT22;25571;47.876;10.642;2023-06-19T08:51:12;37.30;52.40
39899;DHT22;25571;47.876;10.642;2023-06-19T08:53:46;37.30;51.90
39899;DHT22;25571;47.876;10.642;2023-06-19T08:56:11;37.10;51.70
39899;DHT22;25571;47.876;10.642;2023-06-19T08:58:37;37.40;50.60
39899;DHT22;25571;47.876;10.642;2023-06-19T09:01:03;37.20;49.10
39899;DHT22;25571;47.876;10.642;2023-06-19T09:03:29;36.40;50.10
39899;DHT22;25571;47.876;10.642;2023-06-19T09:05:54;35.10;52.60
39899;DHT22;25571;47.876;10.642;2023-06-19T09:08:20;35.20;53.70
39899;DHT22;25571;47.876;10.642;2023-06-19T09:10:58;37.60;50.50
39899;DHT22;25571;47.876;10.642;2023-06-19T09:13:24;41.30;45.90
39899;DHT22;25571;47.876;10.642;2023-06-19T09:15:57;38.50;46.70
39899;DHT22;25571;47.876;10.642;2023-06-19T09:18:23;37.60;48.00
39899;DHT22;25571;47.876;10.642;2023-06-19T09:20:48;36.00;50.60
39899;DHT22;25571;47.876;10.642;2023-06-19T09:23:17;34.80;52.60
39899;DHT22;25571;47.876;10.642;2023-06-19T09:28:44;33.20;55.00
39899;DHT22;25571;47.876;10.642;2023-06-19T09:31:03;32.60;54.30
39899;DHT22;25571;47.876;10.642;2023-06-19T09:33:33;32.00;56.00
39899;DHT22;25571;47.876;10.642;2023-06-19T09:35:59;31.60;56.80
39899;DHT22;25571;47.876;10.642;2023-06-19T09:38:29;31.10;57.20
39899;DHT22;25571;47.876;10.642;2023-06-19T09:40:55;30.90;57.80
39899;DHT22;25571;47.876;10.642;2023-06-19T09:43:24;30.60;56.50
39899;DHT22;25571;47.876;10.642;2023-06-19T09:45:51;30.30;57.30
39899;DHT22;25571;47.876;10.642;2023-06-19T09:48:19;30.10;56.60
39899;DHT22;25571;47.876;10.642;2023-06-19T09:50:47;29.90;57.00
39899;DHT22;25571;47.876;10.642;2023-06-19T09:53:14;29.80;56.90
39899;DHT22;25571;47.876;10.642;2023-06-19T09:55:39;29.80;57.50
39899;DHT22;25571;47.876;10.642;2023-06-19T09:58:05;29.60;57.10
39899;DHT22;25571;47.876;10.642;2023-06-19T10:00:31;29.50;57.10
39899;DHT22;25571;47.876;10.642;2023-06-19T10:02:57;29.50;56.90
39899;DHT22;25571;47.876;10.642;2023-06-19T10:05:28;29.60;57.70
39899;DHT22;25571;47.876;10.642;2023-06-19T10:07:53;30.10;55.70
39899;DHT22;25571;47.876;10.642;2023-06-19T10:10:23;30.50;55.60
39899;DHT22;25571;47.876;10.642;2023-06-19T10:12:49;30.70;55.40
39899;DHT22;25571;47.876;10.642;2023-06-19T10:15:18;30.80;54.80
39899;DHT22;25571;47.876;10.642;2023-06-19T10:17:52;30.80;55.40
39899;DHT22;25571;47.876;10.642;2023-06-19T10:20:19;30.70;54.90
39899;DHT22;25571;47.876;10.642;2023-06-19T10:22:51;30.70;54.00
39899;DHT22;25571;47.876;10.642;2023-06-19T10:25:20;30.60;53.00
39899;DHT22;25571;47.876;10.642;2023-06-19T10:27:46;30.60;55.40
39899;DHT22;25571;47.876;10.642;2023-06-19T10:30:21;30.50;55.20
39899;DHT22;25571;47.876;10.642;2023-06-19T10:32:47;30.40;54.80
39899;DHT22;25571;47.876;10.642;2023-06-19T10:35:13;30.30;56.10
39899;DHT22;25571;47.876;10.642;2023-06-19T10:37:39;30.40;55.80
39899;DHT22;25571;47.876;10.642;2023-06-19T10:40:05;30.50;56.00
39899;DHT22;25571;47.876;10.642;2023-06-19T10:42:38;30.70;56.30
39899;DHT22;25571;47.876;10.642;2023-06-19T10:45:04;30.70;55.60
39899;DHT22;25571;47.876;10.642;2023-06-19T10:47:31;30.70;55.10
39899;DHT22;25571;47.876;10.642;2023-06-19T10:49:57;30.80;57.00
39899;DHT22;25571;47.876;10.642;2023-06-19T10:52:22;30.80;57.10
39899;DHT22;25571;47.876;10.642;2023-06-19T10:54:54;31.10;56.60
39899;DHT22;25571;47.876;10.642;2023-06-19T10:57:29;31.50;56.00
39899;DHT22;25571;47.876;10.642;2023-06-19T10:59:55;31.40;55.50
39899;DHT22;25571;47.876;10.642;2023-06-19T11:02:20;31.10;56.20
39899;DHT22;25571;47.876;10.642;2023-06-19T11:04:46;30.80;56.70
39899;DHT22;25571;47.876;10.642;2023-06-19T11:07:11;30.80;57.60
39899;DHT22;25571;47.876;10.642;2023-06-19T11:09:37;30.80;56.00
39899;DHT22;25571;47.876;10.642;2023-06-19T11:12:03;30.50;55.10
39899;DHT22;25571;47.876;10.642;2023-06-19T11:14:31;30.30;55.30
39899;DHT22;25571;47.876;10.642;2023-06-19T11:16:57;30.10;55.00
39899;DHT22;25571;47.876;10.642;2023-06-19T11:19:22;30.00;54.40
39899;DHT22;25571;47.876;10.642;2023-06-19T11:21:51;30.00;54.50
39899;DHT22;25571;47.876;10.642;2023-06-19T11:24:17;29.90;54.20
39899;DHT22;25571;47.876;10.642;2023-06-19T11:26:43;29.90;55.40
39899;DHT22;25571;47.876;10.642;2023-06-19T11:29:15;29.90;55.80
39899;DHT22;25571;47.876;10.642;2023-06-19T11:31:41;29.80;55.70
39899;DHT22;25571;47.876;10.642;2023-06-19T11:34:07;29.60;55.80
39899;DHT22;25571;47.876;10.642;2023-06-19T11:36:32;29.70;56.70
39899;DHT22;25571;47.876;10.642;2023-06-19T11:39:01;29.70;57.30
39899;DHT22;25571;47.876;10.642;2023-06-19T11:41:30;29.80;56.60
39899;DHT22;25571;47.876;10.642;2023-06-19T11:44:06;29.80;55.00
39899;DHT22;25571;47.876;10.642;2023-06-19T11:46:32;29.80;55.60
39899;DHT22;25571;47.876;10.642;2023-06-19T11:49:13;29.80;54.90
39899;DHT22;25571;47.876;10.642;2023-06-19T11:51:40;29.80;54.90
39899;DHT22;25571;47.876;10.642;2023-06-19T11:54:06;29.60;55.50
39899;DHT22;25571;47.876;10.642;2023-06-19T11:56:32;29.70;57.00
39899;DHT22;25571;47.876;10.642;2023-06-19T11:58:57;29.70;57.70
39899;DHT22;25571;47.876;10.642;2023-06-19T12:01:23;29.80;55.90
39899;DHT22;25571;47.876;10.642;2023-06-19T12:03:48;29.70;55.70
39899;DHT22;25571;47.876;10.642;2023-06-19T12:06:13;29.80;56.20
39899;DHT22;25571;47.876;10.642;2023-06-19T12:08:39;29.80;56.20
39899;DHT22;25571;47.876;10.642;2023-06-19T12:11:04;29.90;56.80
39899;DHT22;25571;47.876;10.642;2023-06-19T12:13:33;29.90;56.60
39899;DHT22;25571;47.876;10.642;2023-06-19T12:15:58;29.80;57.10
39899;DHT22;25571;47.876;10.642;2023-06-19T12:18:24;29.90;58.00
39899;DHT22;25571;47.876;10.642;2023-06-19T12:20:49;29.80;56.10
39899;DHT22;25571;47.876;10.642;2023-06-19T12:23:15;29.80;56.50
39899;DHT22;25571;47.876;10.642;2023-06-19T12:25:40;29.80;57.50
39899;DHT22;25571;47.876;10.642;2023-06-19T12:28:06;29.80;56.80
39899;DHT22;25571;47.876;10.642;2023-06-19T12:30:33;29.90;57.40
39899;DHT22;25571;47.876;10.642;2023-06-19T12:32:59;29.50;57.70
39899;DHT22;25571;47.876;10.642;2023-06-19T12:35:24;29.60;57.10
39899;DHT22;25571;47.876;10.642;2023-06-19T12:37:51;29.50;57.10
39899;DHT22;25571;47.876;10.642;2023-06-19T12:40:17;29.60;59.00
39899;DHT22;25571;47.876;10.642;2023-06-19T12:42:42;29.60;57.80
39899;DHT22;25571;47.876;10.642;2023-06-19T12:45:08;29.10;57.70
39899;DHT22;25571;47.876;10.642;2023-06-19T12:47:35;28.90;58.50
39899;DHT22;25571;47.876;10.642;2023-06-19T12:50:00;29.10;58.00
39899;DHT22;25571;47.876;10.642;2023-06-19T12:52:26;29.10;57.60
39899;DHT22;25571;47.876;10.642;2023-06-19T12:54:51;29.20;57.60
39899;DHT22;25571;47.876;10.642;2023-06-19T12:57:17;29.30;57.70
39899;DHT22;25571;47.876;10.642;2023-06-19T12:59:42;29.20;57.00
39899;DHT22;25571;47.876;10.642;2023-06-19T13:02:08;29.10;57.70
39899;DHT22;25571;47.876;10.642;2023-06-19T13:04:33;28.80;57.50
39899;DHT22;25571;47.876;10.642;2023-06-19T13:06:59;28.80;57.50
39899;DHT22;25571;47.876;10.642;2023-06-19T13:09:24;28.90;57.40
39899;DHT22;25571;47.876;10.642;2023-06-19T13:11:50;28.90;57.30
39899;DHT22;25571;47.876;10.642;2023-06-19T13:14:15;29.00;57.30
39899;DHT22;25571;47.876;10.642;2023-06-19T13:16:41;28.90;57.20
39899;DHT22;25571;47.876;10.642;2023-06-19T13:19:06;28.90;58.00
39899;DHT22;25571;47.876;10.642;2023-06-19T13:21:32;28.90;57.90
39899;DHT22;25571;47.876;10.642;2023-06-19T13:23:57;28.90;57.70
39899;DHT22;25571;47.876;10.642;2023-06-19T13:26:23;28.90;57.50
39899;DHT22;25571;47.876;10.642;2023-06-19T13:28:48;29.00;57.80
39899;DHT22;25571;47.876;10.642;2023-06-19T13:31:14;28.90;57.40
39899;DHT22;25571;47.876;10.642;2023-06-19T13:33:39;28.80;57.40
39899;DHT22;25571;47.876;10.642;2023-06-19T13:36:04;28.40;58.10
39899;DHT22;25571;47.876;10.642;2023-06-19T13:38:30;28.40;58.70
39899;DHT22;25571;47.876;10.642;2023-06-19T13:40:56;28.50;57.90
39899;DHT22;25571;47.876;10.642;2023-06-19T13:43:22;28.40;58.50
39899;DHT22;25571;47.876;10.642;2023-06-19T13:45:48;28.20;58.30
39899;DHT22;25571;47.876;10.642;2023-06-19T13:48:14;28.10;58.00
39899;DHT22;25571;47.876;10.642;2023-06-19T13:50:39;28.20;59.30
39899;DHT22;25571;47.876;10.642;2023-06-19T13:53:05;28.10;59.50
39899;DHT22;25571;47.876;10.642;2023-06-19T13:55:30;28.20;58.90
39899;DHT22;25571;47.876;10.642;2023-06-19T13:57:56;28.40;59.80
39899;DHT22;25571;47.876;10.642;2023-06-19T14:00:21;28.40;58.60
39899;DHT22;25571;47.876;10.642;2023-06-19T14:02:47;28.20;58.50
39899;DHT22;25571;47.876;10.642;2023-06-19T14:05:12;28.10;59.10
39899;DHT22;25571;47.876;10.642;2023-06-19T14:07:41;28.20;58.50
39899;DHT22;25571;47.876;10.642;2023-06-19T14:10:08;28.10;58.60
39899;DHT22;25571;47.876;10.642;2023-06-19T14:12:33;28.10;57.30
39899;DHT22;25571;47.876;10.642;2023-06-19T14:14:59;28.10;58.30
39899;DHT22;25571;47.876;10.642;2023-06-19T14:17:24;28.10;57.50
39899;DHT22;25571;47.876;10.642;2023-06-19T14:19:50;28.10;58.30
39899;DHT22;25571;47.876;10.642;2023-06-19T14:22:20;28.20;58.30
39899;DHT22;25571;47.876;10.642;2023-06-19T14:24:46;28.30;58.60
39899;DHT22;25571;47.876;10.642;2023-06-19T14:27:12;28.40;58.40
39899;DHT22;25571;47.876;10.642;2023-06-19T14:29:37;28.40;58.20
39899;DHT22;25571;47.876;10.642;2023-06-19T14:32:03;28.40;57.80
39899;DHT22;25571;47.876;10.642;2023-06-19T14:34:29;28.30;57.80
39899;DHT22;25571;47.876;10.642;2023-06-19T14:36:54;28.40;58.20
39899;DHT22;25571;47.876;10.642;2023-06-19T14:39:20;28.40;57.90
39899;DHT22;25571;47.876;10.642;2023-06-19T14:41:45;28.40;58.10
39899;DHT22;25571;47.876;10.642;2023-06-19T14:44:10;28.20;58.00
39899;DHT22;25571;47.876;10.642;2023-06-19T14:46:36;28.20;58.30
39899;DHT22;25571;47.876;10.642;2023-06-19T14:49:05;28.20;57.80
39899;DHT22;25571;47.876;10.642;2023-06-19T14:51:30;28.10;57.80
39899;DHT22;25571;47.876;10.642;2023-06-19T14:53:56;28.10;58.50
39899;DHT22;25571;47.876;10.642;2023-06-19T14:56:21;28.10;57.90
39899;DHT22;25571;47.876;10.642;2023-06-19T14:58:47;28.10;58.00
39899;DHT22;25571;47.876;10.642;2023-06-19T15:01:13;28.20;58.70
39899;DHT22;25571;47.876;10.642;2023-06-19T15:03:39;28.20;59.00
39899;DHT22;25571;47.876;10.642;2023-06-19T15:06:04;28.30;59.20
39899;DHT22;25571;47.876;10.642;2023-06-19T15:08:29;28.30;58.80
39899;DHT22;25571;47.876;10.642;2023-06-19T15:10:56;28.30;58.30